Track Логвинчук Евгений

Time Latitude Longitude Accuracy (66% radius in meters) Altitude (meters) Speed (km/hour) Bearing (degrees) Battery (%) GPS flag
09:16:40 60.370736 29.556704 0 0 0 0 1 delete
09:16:36 60.370716 29.556704 0 0 0 0 1 delete
09:16:33 60.370684 29.556806 0 0 0 0 1 delete
09:16:31 60.370621 29.556978 0 0 0 0 1 delete
09:16:29 60.370582 29.557184 0 0 0 0 1 delete
09:16:27 60.370636 29.557376 0 0 0 0 1 delete
09:16:25 60.370758 29.557410 0 0 0 0 1 delete
09:16:23 60.370884 29.557254 0 0 0 0 1 delete
09:16:22 60.370959 29.557125 0 0 0 0 1 delete
09:16:20 60.371084 29.556945 0 0 0 0 1 delete
09:16:18 60.371201 29.556941 0 0 0 0 1 delete
09:16:16 60.371312 29.557014 0 0 0 0 1 delete
09:16:14 60.371403 29.557110 0 0 0 0 1 delete
09:16:12 60.371493 29.557218 0 0 0 0 1 delete
09:16:10 60.371588 29.557331 0 0 0 0 1 delete
09:16:08 60.371684 29.557472 0 0 0 0 1 delete
09:16:06 60.371761 29.557646 0 0 0 0 1 delete
09:16:04 60.371822 29.557840 0 0 0 0 1 delete
09:16:02 60.371870 29.558012 0 0 0 0 1 delete
09:15:59 60.371933 29.558164 0 0 0 0 1 delete
09:15:58 60.371951 29.558189 0 0 0 0 1 delete
09:15:56 60.372006 29.558344 0 0 0 0 1 delete
09:15:54 60.372053 29.558553 0 0 0 0 1 delete
09:15:52 60.372127 29.558817 0 0 0 0 1 delete
09:15:50 60.372184 29.559057 0 0 0 0 1 delete
09:15:48 60.372236 29.559313 0 0 0 0 1 delete
09:15:46 60.372281 29.559568 0 0 0 0 1 delete
09:15:44 60.372317 29.559796 0 0 0 0 1 delete
09:15:42 60.372335 29.560057 0 0 0 0 1 delete
09:15:40 60.372317 29.560349 0 0 0 0 1 delete
09:15:38 60.372283 29.560635 0 0 0 0 1 delete
09:15:37 60.372249 29.560813 0 0 0 0 1 delete
09:15:36 60.372201 29.560996 0 0 0 0 1 delete
09:15:34 60.372121 29.561184 0 0 0 0 1 delete
09:15:32 60.372041 29.561333 0 0 0 0 1 delete
09:15:30 60.371948 29.561440 0 0 0 0 1 delete
09:15:28 60.371850 29.561510 0 0 0 0 1 delete
09:15:26 60.371768 29.561639 0 0 0 0 1 delete
09:15:24 60.371698 29.561824 0 0 0 0 1 delete
09:15:22 60.371645 29.562020 0 0 0 0 1 delete
09:15:20 60.371608 29.562202 0 0 0 0 1 delete
09:15:18 60.371568 29.562379 0 0 0 0 1 delete
09:15:16 60.371525 29.562552 0 0 0 0 1 delete
09:15:14 60.371467 29.562701 0 0 0 0 1 delete
09:15:11 60.371399 29.562922 0 0 0 0 1 delete
09:15:08 60.371340 29.563156 0 0 0 0 1 delete
09:15:05 60.371332 29.563415 0 0 0 0 1 delete
09:15:03 60.371341 29.563604 0 0 0 0 1 delete
09:15:00 60.371329 29.563884 0 0 0 0 1 delete
09:14:57 60.371330 29.564117 0 0 0 0 1 delete